Time;durP1;ratioP1;P1;durP2;ratioP2;P2;SDS_P1;SDS_P2;PMS_P1;PMS_P2;Temp;Humidity;BMP_temperature;BMP_pressure;BME280_temperature;BME280_humidity;BME280_pressure;Samples;Min_cycle;Max_cycle;Signal;HPM_P1;HPM_P2
2023/02/21 02:14:30;;;;;;;;;;;;;;;-142.41;100.00;64449.00;5134930;27;19919;-63
2023/02/21 02:17:02;;;;;;;;;;;;;;;-142.41;100.00;64449.00;5134780;27;19911;-65
2023/02/21 02:19:40;;;;;;;;;;;;;;;-142.41;100.00;64449.00;5134915;27;20006;-64
2023/02/21 02:22:05;;;;;;;;;;;;;;;-142.41;100.00;64449.00;5134419;27;19912;-63
2023/02/21 02:24:35;;;;;;;;;;;;;;;-142.41;100.00;64449.00;5134775;27;19920;-63
2023/02/21 02:27:19;;;;;;;;;;;;;;;-142.41;100.00;64449.00;5134941;27;20309;-64
2023/02/21 02:30:19;;;;;;;;;;;;;;;-142.41;100.00;64449.00;5134977;27;19923;-63
2023/02/21 02:33:03;;;;;;;;;;;;;;;-142.41;100.00;64449.00;5089196;27;20363;-63
2023/02/21 02:35:34;;;;;;;;;;;;;;;-142.41;100.00;64449.00;5136813;27;19912;-64
2023/02/21 02:38:10;;;;;;;;;;;;;;;-142.41;100.00;64449.00;5137994;27;19918;-64
2023/02/21 02:40:54;;;;;;;;;;;;;;;-142.41;100.00;64449.00;5134502;27;19911;-63
2023/02/21 02:43:33;;;;;;;;;;;;;;;-142.41;100.00;64449.00;5134285;27;19911;-62
2023/02/21 02:46:02;;;;;;;;;;;;;;;-142.41;100.00;64449.00;5133959;27;19915;-62
2023/02/21 02:48:39;;;;;;;;;;;;;;;-142.41;100.00;64449.00;5134059;27;20042;-63
2023/02/21 02:51:10;;;;;;;;;;;;;;;-142.41;100.00;64449.00;5133766;27;19918;-63
2023/02/21 02:53:35;;;;;;;;;;;;;;;-142.41;100.00;64449.00;5134328;27;20056;-63
2023/02/21 02:56:02;;;;;;;;;;;;;;;-142.41;100.00;64449.00;5134173;27;20496;-62
2023/02/21 02:58:32;;;;;;;;;;;;;;;-142.41;100.00;64449.00;5115746;27;20267;-62
2023/02/21 03:01:24;;;;;;;;;;;;;;;-142.41;100.00;64449.00;5133617;27;20386;-63
2023/02/21 03:04:10;;;;;;;;;;;;;;;-142.41;100.00;64449.00;5102625;27;19979;-64
2023/02/21 03:06:53;;;;;;;;;;;;;;;-142.41;100.00;64449.00;5091926;27;19930;-65
2023/02/21 03:09:28;;;;;;;;;;;;;;;-142.41;100.00;64449.00;5133944;27;19911;-64
2023/02/21 03:12:15;;;;;;;;;;;;;;;-142.41;100.00;64449.00;5133679;27;19912;-65
2023/02/21 03:14:45;;;;;;;;;;;;;;;-142.41;100.00;64449.00;5134050;27;19964;-63
2023/02/21 03:17:13;;;;;;;;;;;;;;;-142.41;100.00;64449.00;5133705;27;19912;-62
2023/02/21 03:19:40;;;;;;;;;;;;;;;-142.41;100.00;64449.00;5133343;27;20350;-63
2023/02/21 03:22:25;;;;;;;;;;;;;;;-142.41;100.00;64449.00;5133483;27;19992;-63
2023/02/21 03:24:52;;;;;;;;;;;;;;;-142.41;100.00;64449.00;5133644;27;19911;-64
2023/02/21 03:27:19;;;;;;;;;;;;;;;-142.41;100.00;64449.00;5133354;27;20011;-64
2023/02/21 03:29:45;;;;;;;;;;;;;;;-142.41;100.00;64449.00;5133404;27;19915;-65
2023/02/21 03:34:46;;;;;;;;;;;;;;;-142.41;100.00;64449.00;5133450;27;19918;-65
2023/02/21 03:37:38;;;;;;;;;;;;;;;-142.41;100.00;64449.00;5133557;27;19916;-63
2023/02/21 03:40:08;;;;;;;;;;;;;;;-142.41;100.00;64449.00;5129017;27;19918;-63
2023/02/21 03:42:33;;;;;;;;;;;;;;;-142.41;100.00;64449.00;5133033;28;20355;-65
2023/02/21 03:44:59;;;;;;;;;;;;;;;-142.41;100.00;64449.00;5133147;28;19912;-64
2023/02/21 03:47:25;;;;;;;;;;;;;;;-142.41;100.00;64449.00;5133146;28;19930;-66
2023/02/21 03:49:50;;;;;;;;;;;;;;;-142.41;100.00;64449.00;5133353;28;19911;-64
2023/02/21 03:52:15;;;;;;;;;;;;;;;-142.41;100.00;64449.00;5133140;28;19911;-63
2023/02/21 03:54:41;;;;;;;;;;;;;;;-142.41;100.00;64449.00;5132941;28;19962;-63
2023/02/21 03:57:06;;;;;;;;;;;;;;;-142.41;100.00;64449.00;5133349;28;20385;-67
2023/02/21 03:59:31;;;;;;;;;;;;;;;-142.41;100.00;64449.00;5133220;28;19919;-66
2023/02/21 04:01:57;;;;;;;;;;;;;;;-142.41;100.00;64449.00;5132869;28;19919;-63
2023/02/21 04:04:22;;;;;;;;;;;;;;;-142.41;100.00;64449.00;5133279;28;19911;-65
2023/02/21 04:06:48;;;;;;;;;;;;;;;-142.41;100.00;64449.00;5133031;28;19934;-66
2023/02/21 04:09:13;;;;;;;;;;;;;;;-142.41;100.00;64449.00;5132923;28;19958;-65
2023/02/21 04:11:42;;;;;;;;;;;;;;;-142.41;100.00;64449.00;5133774;27;19911;-66
2023/02/21 04:14:08;;;;;;;;;;;;;;;-142.41;100.00;64449.00;5119121;27;19911;-70
2023/02/21 04:16:33;;;;;;;;;;;;;;;-142.41;100.00;64449.00;5139526;27;19933;-71
2023/02/21 04:18:58;;;;;;;;;;;;;;;-142.41;100.00;64449.00;5119871;27;20494;-71
2023/02/21 04:21:24;;;;;;;;;;;;;;;-142.41;100.00;64449.00;5137347;27;19917;-70
2023/02/21 04:23:49;;;;;;;;;;;;;;;-142.41;100.00;64449.00;5136995;27;19911;-69
2023/02/21 04:26:15;;;;;;;;;;;;;;;-142.41;100.00;64449.00;5136774;27;19964;-68
2023/02/21 04:28:47;;;;;;;;;;;;;;;-142.41;100.00;64449.00;5136015;27;20007;-67
2023/02/21 04:31:14;;;;;;;;;;;;;;;-142.41;100.00;64449.00;5136771;27;19968;-65
2023/02/21 04:33:39;;;;;;;;;;;;;;;-142.41;100.00;64449.00;5118627;27;19962;-65
2023/02/21 04:36:04;;;;;;;;;;;;;;;-142.41;100.00;64449.00;5137307;27;19950;-67
2023/02/21 04:38:30;;;;;;;;;;;;;;;-142.41;100.00;64449.00;5118499;27;19912;-65
2023/02/21 04:40:55;;;;;;;;;;;;;;;-142.41;100.00;64449.00;5136285;27;19972;-64
2023/02/21 04:43:20;;;;;;;;;;;;;;;-142.41;100.00;64449.00;5136441;27;19957;-66
2023/02/21 04:45:46;;;;;;;;;;;;;;;-142.41;100.00;64449.00;5136034;27;19912;-66
2023/02/21 04:48:12;;;;;;;;;;;;;;;-142.41;100.00;64449.00;5136256;27;19919;-65
2023/02/21 04:50:37;;;;;;;;;;;;;;;-142.41;100.00;64449.00;5136465;27;19997;-65
2023/02/21 04:53:02;;;;;;;;;;;;;;;-142.41;100.00;64449.00;5136707;27;19911;-65
2023/02/21 04:55:28;;;;;;;;;;;;;;;-142.41;100.00;64449.00;5135989;27;19922;-65
2023/02/21 04:57:53;;;;;;;;;;;;;;;-142.41;100.00;64449.00;5136488;27;19911;-66
2023/02/21 05:00:19;;;;;;;;;;;;;;;-142.41;100.00;64449.00;5135865;27;19927;-66
2023/02/21 05:02:44;;;;;;;;;;;;;;;-142.41;100.00;64449.00;5136197;27;19911;-64
2023/02/21 05:05:10;;;;;;;;;;;;;;;-142.41;100.00;64449.00;5136119;27;19954;-65
2023/02/21 05:07:36;;;;;;;;;;;;;;;-142.41;100.00;64449.00;5135813;27;19920;-65
2023/02/21 05:10:04;;;;;;;;;;;;;;;-142.41;100.00;64449.00;5117640;27;19920;-65
2023/02/21 05:12:30;;;;;;;;;;;;;;;-142.41;100.00;64449.00;5137653;27;19912;-65
2023/02/21 05:14:55;;;;;;;;;;;;;;;-142.41;100.00;64449.00;5137049;27;19922;-69
2023/02/21 05:17:20;;;;;;;;;;;;;;;-142.41;100.00;64449.00;5101786;27;20345;-67
2023/02/21 05:19:46;;;;;;;;;;;;;;;-142.41;100.00;64449.00;5136177;27;19962;-68
2023/02/21 05:22:11;;;;;;;;;;;;;;;-142.41;100.00;64449.00;5135871;27;19965;-67
2023/02/21 05:24:41;;;;;;;;;;;;;;;-142.41;100.00;64449.00;5137058;27;19989;-68
2023/02/21 05:27:10;;;;;;;;;;;;;;;-142.41;100.00;64449.00;5135895;27;20064;-68
2023/02/21 05:29:35;;;;;;;;;;;;;;;-142.41;100.00;64449.00;5138563;27;19915;-67
2023/02/21 05:32:01;;;;;;;;;;;;;;;-142.41;100.00;64449.00;5135893;27;19919;-67
2023/02/21 05:34:26;;;;;;;;;;;;;;;-142.41;100.00;64449.00;5136172;27;19911;-68
2023/02/21 05:36:51;;;;;;;;;;;;;;;-142.41;100.00;64449.00;5135471;27;19923;-67
2023/02/21 05:39:17;;;;;;;;;;;;;;;-142.41;100.00;64449.00;5135409;27;19911;-67
2023/02/21 05:41:49;;;;;;;;;;;;;;;-142.41;100.00;64449.00;5116790;27;19915;-67
2023/02/21 05:44:15;;;;;;;;;;;;;;;-142.41;100.00;64449.00;5135462;27;19918;-66
2023/02/21 05:46:40;;;;;;;;;;;;;;;-142.41;100.00;64449.00;5135734;27;19911;-68
2023/02/21 05:49:31;;;;;;;;;;;;;;;-142.41;100.00;64449.00;5135393;27;19960;-70
2023/02/21 05:51:56;;;;;;;;;;;;;;;-142.41;100.00;64449.00;5135176;27;20320;-70
2023/02/21 05:54:22;;;;;;;;;;;;;;;-142.41;100.00;64449.00;5134869;27;19915;-69
2023/02/21 05:56:47;;;;;;;;;;;;;;;-142.41;100.00;64449.00;5134872;27;19912;-70
2023/02/21 05:59:13;;;;;;;;;;;;;;;-142.41;100.00;64449.00;5135089;27;20030;-70
2023/02/21 06:01:39;;;;;;;;;;;;;;;-142.41;100.00;64449.00;5134895;27;19956;-70
2023/02/21 06:04:06;;;;;;;;;;;;;;;-142.41;100.00;64449.00;5135008;27;20347;-68
2023/02/21 06:06:36;;;;;;;;;;;;;;;-142.41;100.00;64449.00;5134936;27;19962;-72
2023/02/21 06:09:01;;;;;;;;;;;;;;;-142.41;100.00;64449.00;5134758;27;19911;-71
2023/02/21 06:11:29;;;;;;;;;;;;;;;-142.41;100.00;64449.00;5134888;27;19919;-70
2023/02/21 06:13:56;;;;;;;;;;;;;;;-142.41;100.00;64449.00;5134880;27;19919;-69
2023/02/21 06:16:22;;;;;;;;;;;;;;;-142.41;100.00;64449.00;5134572;27;19918;-68
2023/02/21 06:18:51;;;;;;;;;;;;;;;-142.41;100.00;64449.00;5134558;27;20002;-67
2023/02/21 06:21:16;;;;;;;;;;;;;;;-142.41;100.00;64449.00;5134472;27;20305;-67
2023/02/21 06:23:42;;;;;;;;;;;;;;;-142.41;100.00;64449.00;5134305;27;19938;-70
2023/02/21 06:26:07;;;;;;;;;;;;;;;-142.41;100.00;64449.00;5134740;27;19922;-69
2023/02/21 06:28:34;;;;;;;;;;;;;;;-142.41;100.00;64449.00;5135838;27;19926;-69
2023/02/21 06:31:00;;;;;;;;;;;;;;;-142.41;100.00;64449.00;5136244;27;19954;-66
2023/02/21 06:33:25;;;;;;;;;;;;;;;-142.41;100.00;64449.00;5134267;27;19973;-69
2023/02/21 06:35:50;;;;;;;;;;;;;;;-142.41;100.00;64449.00;5133062;27;19911;-68
2023/02/21 06:38:16;;;;;;;;;;;;;;;-142.41;100.00;64449.00;5116366;27;19911;-68
2023/02/21 06:40:42;;;;;;;;;;;;;;;-142.41;100.00;64449.00;5115506;27;19962;-67
2023/02/21 06:43:07;;;;;;;;;;;;;;;-142.41;100.00;64449.00;5134179;27;19919;-67
2023/02/21 06:45:32;;;;;;;;;;;;;;;-142.41;100.00;64449.00;5133625;27;20009;-66
2023/02/21 06:47:57;;;;;;;;;;;;;;;-142.41;100.00;64449.00;5133423;27;19918;-67
2023/02/21 06:50:23;;;;;;;;;;;;;;;-142.41;100.00;64449.00;5133495;27;19916;-69
2023/02/21 06:52:48;;;;;;;;;;;;;;;-142.41;100.00;64449.00;5133958;27;19950;-68
2023/02/21 06:55:18;;;;;;;;;;;;;;;-142.41;100.00;64449.00;5134250;27;19972;-71
2023/02/21 06:57:44;;;;;;;;;;;;;;;-142.41;100.00;64449.00;5134041;27;19912;-68
2023/02/21 07:00:09;;;;;;;;;;;;;;;-142.41;100.00;64449.00;5134773;27;19919;-67
2023/02/21 07:02:35;;;;;;;;;;;;;;;-142.41;100.00;64449.00;5116148;27;19911;-67
2023/02/21 07:05:00;;;;;;;;;;;;;;;-142.41;100.00;64449.00;5134437;27;20385;-68
2023/02/21 07:07:25;;;;;;;;;;;;;;;-142.41;100.00;64449.00;5134177;27;19943;-68
2023/02/21 07:09:51;;;;;;;;;;;;;;;-142.41;100.00;64449.00;5134437;27;19955;-67
2023/02/21 07:12:16;;;;;;;;;;;;;;;-142.41;100.00;64449.00;5134546;27;20347;-67
2023/02/21 07:14:41;;;;;;;;;;;;;;;-142.41;100.00;64449.00;5134129;27;19988;-68
2023/02/21 07:17:07;;;;;;;;;;;;;;;-142.41;100.00;64449.00;5134362;27;20385;-67
2023/02/21 07:19:32;;;;;;;;;;;;;;;-142.41;100.00;64449.00;5134068;27;20010;-67
2023/02/21 07:21:57;;;;;;;;;;;;;;;-142.41;100.00;64449.00;5115635;27;20389;-68
2023/02/21 07:24:23;;;;;;;;;;;;;;;-142.41;100.00;64449.00;5133517;27;19912;-68
2023/02/21 07:26:48;;;;;;;;;;;;;;;-142.41;100.00;64449.00;5134106;27;19911;-67
2023/02/21 07:29:13;;;;;;;;;;;;;;;-142.41;100.00;64449.00;5134065;27;19915;-67
2023/02/21 07:31:39;;;;;;;;;;;;;;;-142.41;100.00;64449.00;5115072;27;19920;-67
2023/02/21 07:34:04;;;;;;;;;;;;;;;-142.41;100.00;64449.00;5133701;27;20838;-66
2023/02/21 07:36:30;;;;;;;;;;;;;;;-142.41;100.00;64449.00;5133500;27;20010;-68
2023/02/21 07:38:55;;;;;;;;;;;;;;;-142.41;100.00;64449.00;5115047;27;19999;-68
2023/02/21 07:41:20;;;;;;;;;;;;;;;-142.41;100.00;64449.00;5133541;27;19961;-68
2023/02/21 07:43:46;;;;;;;;;;;;;;;-142.41;100.00;64449.00;5133269;28;19911;-68
2023/02/21 07:46:12;;;;;;;;;;;;;;;-142.41;100.00;64449.00;5132575;27;20025;-67
2023/02/21 07:48:37;;;;;;;;;;;;;;;-142.41;100.00;64449.00;5133032;28;19911;-67
2023/02/21 07:51:03;;;;;;;;;;;;;;;-142.41;100.00;64449.00;5132968;28;19968;-68
2023/02/21 07:53:28;;;;;;;;;;;;;;;-142.41;100.00;64449.00;5132846;28;20006;-67
2023/02/21 07:55:53;;;;;;;;;;;;;;;-142.41;100.00;64449.00;5133247;28;20354;-67
2023/02/21 07:58:19;;;;;;;;;;;;;;;-142.41;100.00;64449.00;5133205;28;19918;-69
2023/02/21 08:00:44;;;;;;;;;;;;;;;-142.41;100.00;64449.00;5114880;28;19918;-67
2023/02/21 08:03:13;;;;;;;;;;;;;;;-142.41;100.00;64449.00;5133129;28;19918;-67
2023/02/21 08:05:38;;;;;;;;;;;;;;;-142.41;100.00;64449.00;5097695;28;19915;-71
2023/02/21 08:08:06;;;;;;;;;;;;;;;-142.41;100.00;64449.00;5098055;28;19918;-67
2023/02/21 08:10:31;;;;;;;;;;;;;;;-142.41;100.00;64449.00;5133043;28;20235;-66
2023/02/21 08:12:56;;;;;;;;;;;;;;;-142.41;100.00;64449.00;5133153;28;19919;-71
2023/02/21 08:15:22;;;;;;;;;;;;;;;-142.41;100.00;64449.00;5133295;28;19919;-68
2023/02/21 08:17:48;;;;;;;;;;;;;;;-142.41;100.00;64449.00;5114731;28;19919;-68
2023/02/21 08:20:14;;;;;;;;;;;;;;;-142.41;100.00;64449.00;5132841;28;19918;-70
2023/02/21 08:22:39;;;;;;;;;;;;;;;-142.41;100.00;64449.00;5133386;28;19916;-67
2023/02/21 08:25:04;;;;;;;;;;;;;;;-142.41;100.00;64449.00;5133313;28;19912;-68
2023/02/21 08:27:31;;;;;;;;;;;;;;;-142.41;100.00;64449.00;5114608;28;19916;-66
2023/02/21 08:29:56;;;;;;;;;;;;;;;-142.41;100.00;64449.00;5097799;28;19916;-67
2023/02/21 08:32:22;;;;;;;;;;;;;;;-142.41;100.00;64449.00;5132696;28;19929;-66
2023/02/21 08:34:47;;;;;;;;;;;;;;;-142.41;100.00;64449.00;5132749;28;19911;-67
2023/02/21 08:37:16;;;;;;;;;;;;;;;-142.41;100.00;64449.00;5133093;28;19911;-67
2023/02/21 08:39:48;;;;;;;;;;;;;;;-142.41;100.00;64449.00;5132553;28;19911;-66
2023/02/21 08:42:14;;;;;;;;;;;;;;;-142.41;100.00;64449.00;5115135;28;20315;-66
2023/02/21 08:44:41;;;;;;;;;;;;;;;-142.41;100.00;64449.00;5133002;28;19925;-67
2023/02/21 08:47:07;;;;;;;;;;;;;;;-142.41;100.00;64449.00;5132400;28;19915;-68
2023/02/21 08:49:32;;;;;;;;;;;;;;;-142.41;100.00;64449.00;5114038;28;19923;-66
2023/02/21 08:51:58;;;;;;;;;;;;;;;-142.41;100.00;64449.00;5114289;28;19915;-67
2023/02/21 08:54:23;;;;;;;;;;;;;;;-142.41;100.00;64449.00;5114568;28;20064;-66
2023/02/21 08:56:49;;;;;;;;;;;;;;;-142.41;100.00;64449.00;5132901;28;19955;-68
2023/02/21 08:59:15;;;;;;;;;;;;;;;-142.41;100.00;64449.00;5134553;27;20236;-67
2023/02/21 09:01:40;;;;;;;;;;;;;;;-142.41;100.00;64449.00;5117487;27;19912;-67
2023/02/21 09:04:05;;;;;;;;;;;;;;;-142.41;100.00;64449.00;5117589;27;19912;-68
2023/02/21 09:06:31;;;;;;;;;;;;;;;-142.41;100.00;64449.00;5136792;27;20410;-67
2023/02/21 09:08:56;;;;;;;;;;;;;;;-142.41;100.00;64449.00;5135935;27;20351;-66
2023/02/21 09:11:22;;;;;;;;;;;;;;;-142.41;100.00;64449.00;5135840;27;20022;-67
2023/02/21 09:13:47;;;;;;;;;;;;;;;-142.41;100.00;64449.00;5135813;27;20419;-69
2023/02/21 09:16:12;;;;;;;;;;;;;;;-142.41;100.00;64449.00;5136099;27;20342;-67
2023/02/21 09:18:38;;;;;;;;;;;;;;;-142.41;100.00;64449.00;5135824;27;19911;-67
2023/02/21 09:21:05;;;;;;;;;;;;;;;-142.41;100.00;64449.00;5135874;27;20022;-66
2023/02/21 09:23:30;;;;;;;;;;;;;;;-142.41;100.00;64449.00;5136056;27;19911;-68
2023/02/21 09:25:55;;;;;;;;;;;;;;;-142.41;100.00;64449.00;5117394;27;19972;-69
2023/02/21 09:28:24;;;;;;;;;;;;;;;-142.41;100.00;64449.00;5117273;27;19916;-67
2023/02/21 09:30:49;;;;;;;;;;;;;;;-142.41;100.00;64449.00;5135631;27;20500;-66
2023/02/21 09:33:15;;;;;;;;;;;;;;;-142.41;100.00;64449.00;5135601;27;20009;-69
2023/02/21 09:35:40;;;;;;;;;;;;;;;-142.41;100.00;64449.00;5135670;27;19912;-69
2023/02/21 09:38:06;;;;;;;;;;;;;;;-142.41;100.00;64449.00;5135634;27;19911;-66
2023/02/21 09:40:43;;;;;;;;;;;;;;;-142.41;100.00;64449.00;5135674;27;19936;-68
2023/02/21 09:43:14;;;;;;;;;;;;;;;-142.41;100.00;64449.00;5135235;27;20006;-67
2023/02/21 09:45:40;;;;;;;;;;;;;;;-142.41;100.00;64449.00;5135313;27;20053;-67
2023/02/21 09:48:12;;;;;;;;;;;;;;;-142.41;100.00;64449.00;5135984;27;19955;-67
2023/02/21 09:50:43;;;;;;;;;;;;;;;-142.41;100.00;64449.00;5135980;27;20370;-68
2023/02/21 09:53:12;;;;;;;;;;;;;;;-142.41;100.00;64449.00;5135515;27;19970;-67
2023/02/21 09:55:38;;;;;;;;;;;;;;;-142.41;100.00;64449.00;5135106;27;19911;-68
2023/02/21 09:58:11;;;;;;;;;;;;;;;-142.41;100.00;64449.00;5135105;27;19919;-67
2023/02/21 10:00:37;;;;;;;;;;;;;;;-142.41;100.00;64449.00;5135244;27;19912;-68
2023/02/21 10:03:09;;;;;;;;;;;;;;;-142.41;100.00;64449.00;5135370;27;19926;-69
2023/02/21 10:05:37;;;;;;;;;;;;;;;-142.41;100.00;64449.00;5116933;27;20391;-68
2023/02/21 10:08:18;;;;;;;;;;;;;;;-142.41;100.00;64449.00;5135481;27;19919;-67
2023/02/21 10:10:45;;;;;;;;;;;;;;;-142.41;100.00;64449.00;5134554;27;20000;-67
2023/02/21 10:13:29;;;;;;;;;;;;;;;-142.41;100.00;64449.00;5135085;27;19915;-68
2023/02/21 10:15:59;;;;;;;;;;;;;;;-142.41;100.00;64449.00;5134692;27;19911;-66
2023/02/21 10:18:30;;;;;;;;;;;;;;;-142.41;100.00;64449.00;5134764;27;19912;-68
2023/02/21 10:21:03;;;;;;;;;;;;;;;-142.41;100.00;64449.00;5134759;27;19919;-67
2023/02/21 10:23:31;;;;;;;;;;;;;;;-142.41;100.00;64449.00;5134742;27;20350;-67
2023/02/21 10:26:01;;;;;;;;;;;;;;;-142.41;100.00;64449.00;5134721;27;19952;-67
2023/02/21 10:28:27;;;;;;;;;;;;;;;-142.41;100.00;64449.00;5134466;27;19916;-68
2023/02/21 10:31:01;;;;;;;;;;;;;;;-142.41;100.00;64449.00;5134749;27;19927;-68
2023/02/21 10:33:26;;;;;;;;;;;;;;;-142.41;100.00;64449.00;5115884;27;20347;-68
2023/02/21 10:35:53;;;;;;;;;;;;;;;-142.41;100.00;64449.00;5134344;27;19911;-66
2023/02/21 10:38:22;;;;;;;;;;;;;;;-142.41;100.00;64449.00;5134936;27;19977;-67
2023/02/21 10:40:50;;;;;;;;;;;;;;;-142.41;100.00;64449.00;5134917;27;19911;-67
2023/02/21 10:43:21;;;;;;;;;;;;;;;-142.41;100.00;64449.00;5134095;27;19933;-66
2023/02/21 10:45:57;;;;;;;;;;;;;;;-142.41;100.00;64449.00;5115368;27;19918;-67
2023/02/21 10:48:29;;;;;;;;;;;;;;;-142.41;100.00;64449.00;5134495;27;19911;-68
2023/02/21 10:51:04;;;;;;;;;;;;;;;-142.41;100.00;64449.00;5134233;27;19918;-67
2023/02/21 10:53:31;;;;;;;;;;;;;;;-142.41;100.00;64449.00;5134223;27;19922;-68
2023/02/21 10:56:08;;;;;;;;;;;;;;;-142.41;100.00;64449.00;5134331;27;19912;-68
2023/02/21 10:58:34;;;;;;;;;;;;;;;-142.41;100.00;64449.00;5134003;27;19911;-68
2023/02/21 11:01:13;;;;;;;;;;;;;;;-142.41;100.00;64449.00;5134114;27;19918;-68
2023/02/21 11:03:42;;;;;;;;;;;;;;;-142.41;100.00;64449.00;5133890;27;20323;-67
2023/02/21 11:06:07;;;;;;;;;;;;;;;-142.41;100.00;64449.00;5133921;27;20433;-68
2023/02/21 11:08:37;;;;;;;;;;;;;;;-142.41;100.00;64449.00;5133980;27;20089;-67
2023/02/21 11:11:03;;;;;;;;;;;;;;;-142.41;100.00;64449.00;5133903;27;19968;-68
2023/02/21 11:13:29;;;;;;;;;;;;;;;-142.41;100.00;64449.00;5133693;27;19915;-68
2023/02/21 11:16:14;;;;;;;;;;;;;;;-142.41;100.00;64449.00;5133770;27;19957;-67
2023/02/21 11:18:39;;;;;;;;;;;;;;;-142.41;100.00;64449.00;5133660;27;19963;-67
2023/02/21 11:21:18;;;;;;;;;;;;;;;-142.41;100.00;64449.00;5133378;27;19915;-68
2023/02/21 11:23:46;;;;;;;;;;;;;;;-142.41;100.00;64449.00;5133464;27;20419;-65
2023/02/21 11:26:11;;;;;;;;;;;;;;;-142.41;100.00;64449.00;5134966;27;20282;-66
2023/02/21 11:28:42;;;;;;;;;;;;;;;-142.41;100.00;64449.00;5133872;27;19922;-67
2023/02/21 11:31:13;;;;;;;;;;;;;;;-142.41;100.00;64449.00;5133613;27;19915;-69
2023/02/21 11:33:41;;;;;;;;;;;;;;;-142.41;100.00;64449.00;5133658;27;19967;-67
2023/02/21 11:36:26;;;;;;;;;;;;;;;-142.41;100.00;64449.00;5133283;27;19911;-69
2023/02/21 11:38:59;;;;;;;;;;;;;;;-142.41;100.00;64449.00;5114559;28;19911;-69
2023/02/21 11:41:45;;;;;;;;;;;;;;;-142.41;100.00;64449.00;5133172;27;19911;-67
2023/02/21 11:44:22;;;;;;;;;;;;;;;-142.41;100.00;64449.00;5133145;27;19919;-68
2023/02/21 11:46:49;;;;;;;;;;;;;;;-142.41;100.00;64449.00;5133302;28;20368;-68
2023/02/21 11:49:33;;;;;;;;;;;;;;;-142.41;100.00;64449.00;5133811;28;19918;-66
2023/02/21 11:52:05;;;;;;;;;;;;;;;-142.41;100.00;64449.00;5133825;28;20204;-70
2023/02/21 11:54:31;;;;;;;;;;;;;;;-142.41;100.00;64449.00;5133414;28;19915;-68
2023/02/21 11:57:07;;;;;;;;;;;;;;;-142.41;100.00;64449.00;5133236;28;19937;-70
2023/02/21 11:59:38;;;;;;;;;;;;;;;-142.41;100.00;64449.00;5133661;28;19939;-68
2023/02/21 12:02:26;;;;;;;;;;;;;;;-142.41;100.00;64449.00;5133398;28;19912;-70
2023/02/21 12:05:04;;;;;;;;;;;;;;;-142.41;100.00;64449.00;5094445;28;19934;-69
2023/02/21 12:07:41;;;;;;;;;;;;;;;-142.41;100.00;64449.00;5114944;28;19919;-69
2023/02/21 12:10:25;;;;;;;;;;;;;;;-142.41;100.00;64449.00;5133286;28;20317;-68
2023/02/21 12:12:58;;;;;;;;;;;;;;;-142.41;100.00;64449.00;5133068;28;19934;-66
2023/02/21 12:15:25;;;;;;;;;;;;;;;-142.41;100.00;64449.00;5132935;28;20480;-68
2023/02/21 12:17:51;;;;;;;;;;;;;;;-142.41;100.00;64449.00;5132900;28;20374;-69
2023/02/21 12:20:36;;;;;;;;;;;;;;;-142.41;100.00;64449.00;5114917;28;20019;-69
2023/02/21 12:23:20;;;;;;;;;;;;;;;-142.41;100.00;64449.00;5133627;28;19911;-70
2023/02/21 12:25:51;;;;;;;;;;;;;;;-142.41;100.00;64449.00;5133023;28;19911;-67
2023/02/21 12:28:22;;;;;;;;;;;;;;;-142.41;100.00;64449.00;5132939;28;19970;-67
2023/02/21 12:30:50;;;;;;;;;;;;;;;-142.41;100.00;64449.00;5133549;28;19915;-66
2023/02/21 12:33:15;;;;;;;;;;;;;;;-142.41;100.00;64449.00;5116380;27;20014;-68
2023/02/21 12:35:44;;;;;;;;;;;;;;;-142.41;100.00;64449.00;5136912;27;20061;-68
2023/02/21 12:38:16;;;;;;;;;;;;;;;-142.41;100.00;64449.00;5136599;27;19956;-67
2023/02/21 12:40:41;;;;;;;;;;;;;;;-142.41;100.00;64449.00;5117998;27;20347;-67
2023/02/21 12:43:12;;;;;;;;;;;;;;;-142.41;100.00;64449.00;5136588;27;19975;-67
2023/02/21 12:45:46;;;;;;;;;;;;;;;-142.41;100.00;64449.00;5136645;27;19918;-67
2023/02/21 12:48:24;;;;;;;;;;;;;;;-142.41;100.00;64449.00;5136576;27;19919;-68
2023/02/21 12:50:51;;;;;;;;;;;;;;;-142.41;100.00;64449.00;5136575;27;19920;-67
2023/02/21 12:53:35;;;;;;;;;;;;;;;-142.41;100.00;64449.00;5117766;27;20375;-66
2023/02/21 12:56:13;;;;;;;;;;;;;;;-142.41;100.00;64449.00;5136208;27;20393;-68
2023/02/21 12:59:05;;;;;;;;;;;;;;;-142.41;100.00;64449.00;5136333;27;19911;-66
2023/02/21 13:01:36;;;;;;;;;;;;;;;-142.41;100.00;64449.00;5139347;27;19942;-66
2023/02/21 13:04:22;;;;;;;;;;;;;;;-142.41;100.00;64449.00;5137631;27;19911;-69
2023/02/21 13:06:47;;;;;;;;;;;;;;;-142.41;100.00;64449.00;5135405;27;19912;-67
2023/02/21 13:09:32;;;;;;;;;;;;;;;-142.41;100.00;64449.00;5136166;27;19918;-66
2023/02/21 13:11:58;;;;;;;;;;;;;;;-142.41;100.00;64449.00;5135819;27;20010;-68
2023/02/21 13:14:26;;;;;;;;;;;;;;;-142.41;100.00;64449.00;5117774;27;19998;-68
2023/02/21 13:16:52;;;;;;;;;;;;;;;-142.41;100.00;64449.00;5136242;27;19947;-68
2023/02/21 13:19:17;;;;;;;;;;;;;;;-142.41;100.00;64449.00;5135804;27;19911;-67
2023/02/21 13:21:49;;;;;;;;;;;;;;;-142.41;100.00;64449.00;5117507;27;19918;-67
2023/02/21 13:24:48;;;;;;;;;;;;;;;-142.41;100.00;64449.00;5135396;27;19964;-67
2023/02/21 13:27:32;;;;;;;;;;;;;;;-142.41;100.00;64449.00;5136068;27;19912;-67
2023/02/21 13:30:04;;;;;;;;;;;;;;;-142.41;100.00;64449.00;5135698;27;19922;-67
2023/02/21 13:32:36;;;;;;;;;;;;;;;-142.41;100.00;64449.00;5135518;27;19915;-68
2023/02/21 13:35:06;;;;;;;;;;;;;;;-142.41;100.00;64449.00;5135737;27;19911;-67
2023/02/21 13:37:33;;;;;;;;;;;;;;;-142.41;100.00;64449.00;5135503;27;20442;-68
2023/02/21 13:40:06;;;;;;;;;;;;;;;-142.41;100.00;64449.00;5117080;27;19987;-68
2023/02/21 13:42:33;;;;;;;;;;;;;;;-142.41;100.00;64449.00;5135780;27;19919;-66
2023/02/21 13:45:04;;;;;;;;;;;;;;;-142.41;100.00;64449.00;5134699;27;19919;-68
2023/02/21 13:47:49;;;;;;;;;;;;;;;-142.41;100.00;64449.00;5135615;27;19918;-67
2023/02/21 13:50:42;;;;;;;;;;;;;;;-142.41;100.00;64449.00;5135013;27;20406;-66
2023/02/21 13:53:07;;;;;;;;;;;;;;;-142.41;100.00;64449.00;5103780;27;20286;-67
2023/02/21 13:55:33;;;;;;;;;;;;;;;-142.41;100.00;64449.00;5134980;27;19915;-68
2023/02/21 13:58:36;;;;;;;;;;;;;;;-142.41;100.00;64449.00;5137478;27;19922;-68
2023/02/21 14:01:10;;;;;;;;;;;;;;;-142.41;100.00;64449.00;5137327;27;19915;-68
2023/02/21 14:03:36;;;;;;;;;;;;;;;-142.41;100.00;64449.00;5135011;27;19919;-67
2023/02/21 14:06:07;;;;;;;;;;;;;;;-142.41;100.00;64449.00;5116356;27;19911;-68
2023/02/21 14:09:02;;;;;;;;;;;;;;;-142.41;100.00;64449.00;5135069;27;19915;-67
2023/02/21 14:11:30;;;;;;;;;;;;;;;-142.41;100.00;64449.00;5116840;27;19919;-67
2023/02/21 14:14:03;;;;;;;;;;;;;;;-142.41;100.00;64449.00;5116431;27;20339;-68
2023/02/21 14:16:32;;;;;;;;;;;;;;;-142.41;100.00;64449.00;5134734;27;19911;-66
2023/02/21 14:19:04;;;;;;;;;;;;;;;-142.41;100.00;64449.00;5134716;27;19911;-67
2023/02/21 14:21:44;;;;;;;;;;;;;;;-142.41;100.00;64449.00;5134720;27;19918;-68
2023/02/21 14:24:09;;;;;;;;;;;;;;;-142.41;100.00;64449.00;5134163;27;20406;-68
2023/02/21 14:26:43;;;;;;;;;;;;;;;-142.41;100.00;64449.00;5134573;27;19911;-66
2023/02/21 14:29:28;;;;;;;;;;;;;;;-142.41;100.00;64449.00;5134145;27;19940;-63
2023/02/21 14:32:00;;;;;;;;;;;;;;;-142.41;100.00;64449.00;5134678;27;19916;-66
2023/02/21 14:34:29;;;;;;;;;;;;;;;-142.41;100.00;64449.00;5134403;27;19915;-67
2023/02/21 14:36:57;;;;;;;;;;;;;;;-142.41;100.00;64449.00;5115821;27;20002;-67
2023/02/21 14:39:22;;;;;;;;;;;;;;;-142.41;100.00;64449.00;5134295;27;19956;-68
2023/02/21 14:42:02;;;;;;;;;;;;;;;-142.41;100.00;64449.00;5134049;27;19963;-66
2023/02/21 14:44:47;;;;;;;;;;;;;;;-142.41;100.00;64449.00;5134245;27;19958;-70
2023/02/21 14:47:31;;;;;;;;;;;;;;;-142.41;100.00;64449.00;5134315;27;20394;-63